sensor_id;sensor_type;location;lat;lon;timestamp;P1;durP1;ratioP1;P2;durP2;ratioP2
60730;SDS011;46580;52.114;11.674;2022-07-06T00:02:20;2.70;;;1.00;;
60730;SDS011;46580;52.114;11.674;2022-07-06T00:04:45;3.17;;;0.80;;
60730;SDS011;46580;52.114;11.674;2022-07-06T00:07:11;4.10;;;0.87;;
60730;SDS011;46580;52.114;11.674;2022-07-06T00:09:39;3.57;;;0.90;;
60730;SDS011;46580;52.114;11.674;2022-07-06T00:12:05;2.23;;;1.07;;
60730;SDS011;46580;52.114;11.674;2022-07-06T00:14:31;2.10;;;1.00;;
60730;SDS011;46580;52.114;11.674;2022-07-06T00:16:56;4.30;;;0.70;;
60730;SDS011;46580;52.114;11.674;2022-07-06T00:19:21;2.33;;;1.07;;
60730;SDS011;46580;52.114;11.674;2022-07-06T00:21:47;1.87;;;0.80;;
60730;SDS011;46580;52.114;11.674;2022-07-06T00:24:12;1.13;;;0.70;;
60730;SDS011;46580;52.114;11.674;2022-07-06T00:26:37;5.90;;;0.90;;
60730;SDS011;46580;52.114;11.674;2022-07-06T00:29:03;2.93;;;1.00;;
60730;SDS011;46580;52.114;11.674;2022-07-06T00:31:28;2.60;;;1.13;;
60730;SDS011;46580;52.114;11.674;2022-07-06T00:33:54;5.63;;;1.00;;
60730;SDS011;46580;52.114;11.674;2022-07-06T00:36:20;3.50;;;0.80;;
60730;SDS011;46580;52.114;11.674;2022-07-06T00:38:45;1.97;;;0.70;;
60730;SDS011;46580;52.114;11.674;2022-07-06T00:41:12;2.07;;;0.90;;
60730;SDS011;46580;52.114;11.674;2022-07-06T00:43:48;2.13;;;0.53;;
60730;SDS011;46580;52.114;11.674;2022-07-06T00:46:14;7.70;;;1.00;;
60730;SDS011;46580;52.114;11.674;2022-07-06T00:48:39;5.43;;;0.60;;
60730;SDS011;46580;52.114;11.674;2022-07-06T00:51:04;3.83;;;0.87;;
60730;SDS011;46580;52.114;11.674;2022-07-06T00:53:30;2.43;;;0.90;;
60730;SDS011;46580;52.114;11.674;2022-07-06T00:55:55;2.10;;;0.77;;
60730;SDS011;46580;52.114;11.674;2022-07-06T00:58:21;4.70;;;0.80;;
60730;SDS011;46580;52.114;11.674;2022-07-06T01:00:46;4.33;;;0.93;;
60730;SDS011;46580;52.114;11.674;2022-07-06T01:03:12;3.30;;;0.70;;
60730;SDS011;46580;52.114;11.674;2022-07-06T01:05:37;3.47;;;1.03;;
60730;SDS011;46580;52.114;11.674;2022-07-06T01:08:05;2.43;;;0.73;;
60730;SDS011;46580;52.114;11.674;2022-07-06T01:10:31;2.07;;;0.77;;
60730;SDS011;46580;52.114;11.674;2022-07-06T01:12:56;4.07;;;0.87;;
60730;SDS011;46580;52.114;11.674;2022-07-06T01:15:22;2.90;;;0.70;;
60730;SDS011;46580;52.114;11.674;2022-07-06T01:17:49;3.87;;;0.90;;
60730;SDS011;46580;52.114;11.674;2022-07-06T01:20:15;2.67;;;0.87;;
60730;SDS011;46580;52.114;11.674;2022-07-06T01:22:48;1.37;;;0.77;;
60730;SDS011;46580;52.114;11.674;2022-07-06T01:25:15;3.40;;;0.73;;
60730;SDS011;46580;52.114;11.674;2022-07-06T01:27:41;3.57;;;0.90;;
60730;SDS011;46580;52.114;11.674;2022-07-06T01:30:08;1.63;;;0.80;;
60730;SDS011;46580;52.114;11.674;2022-07-06T01:32:36;1.90;;;1.00;;
60730;SDS011;46580;52.114;11.674;2022-07-06T01:35:02;1.23;;;0.90;;
60730;SDS011;46580;52.114;11.674;2022-07-06T01:37:30;3.17;;;1.03;;
60730;SDS011;46580;52.114;11.674;2022-07-06T01:39:59;3.80;;;1.30;;
60730;SDS011;46580;52.114;11.674;2022-07-06T01:42:25;6.53;;;1.60;;
60730;SDS011;46580;52.114;11.674;2022-07-06T01:44:51;3.23;;;1.27;;
60730;SDS011;46580;52.114;11.674;2022-07-06T01:47:19;4.40;;;0.90;;
60730;SDS011;46580;52.114;11.674;2022-07-06T01:49:48;1.20;;;0.80;;
60730;SDS011;46580;52.114;11.674;2022-07-06T01:52:14;1.93;;;1.03;;
60730;SDS011;46580;52.114;11.674;2022-07-06T01:54:39;3.00;;;1.00;;
60730;SDS011;46580;52.114;11.674;2022-07-06T01:57:05;2.27;;;1.00;;
60730;SDS011;46580;52.114;11.674;2022-07-06T01:59:33;5.03;;;1.40;;
60730;SDS011;46580;52.114;11.674;2022-07-06T02:01:59;4.43;;;1.10;;
60730;SDS011;46580;52.114;11.674;2022-07-06T02:04:24;2.00;;;1.00;;
60730;SDS011;46580;52.114;11.674;2022-07-06T02:06:50;3.57;;;0.80;;
60730;SDS011;46580;52.114;11.674;2022-07-06T02:09:15;3.13;;;1.17;;
60730;SDS011;46580;52.114;11.674;2022-07-06T02:11:41;1.33;;;0.90;;
60730;SDS011;46580;52.114;11.674;2022-07-06T02:14:07;2.33;;;1.00;;
60730;SDS011;46580;52.114;11.674;2022-07-06T02:16:32;3.33;;;0.93;;
60730;SDS011;46580;52.114;11.674;2022-07-06T02:18:58;4.70;;;1.10;;
60730;SDS011;46580;52.114;11.674;2022-07-06T02:21:24;4.33;;;1.10;;
60730;SDS011;46580;52.114;11.674;2022-07-06T02:23:49;1.80;;;0.87;;
60730;SDS011;46580;52.114;11.674;2022-07-06T02:26:15;2.87;;;0.70;;
60730;SDS011;46580;52.114;11.674;2022-07-06T02:28:40;3.30;;;1.10;;
60730;SDS011;46580;52.114;11.674;2022-07-06T02:31:05;2.40;;;0.80;;
60730;SDS011;46580;52.114;11.674;2022-07-06T02:33:33;0.87;;;0.50;;
60730;SDS011;46580;52.114;11.674;2022-07-06T02:35:58;3.77;;;1.07;;
60730;SDS011;46580;52.114;11.674;2022-07-06T02:38:24;1.93;;;1.03;;
60730;SDS011;46580;52.114;11.674;2022-07-06T02:40:52;3.50;;;1.17;;
60730;SDS011;46580;52.114;11.674;2022-07-06T02:43:17;4.10;;;1.30;;
60730;SDS011;46580;52.114;11.674;2022-07-06T02:45:43;4.50;;;1.20;;
60730;SDS011;46580;52.114;11.674;2022-07-06T02:48:08;2.93;;;0.80;;
60730;SDS011;46580;52.114;11.674;2022-07-06T02:50:34;2.43;;;1.03;;
60730;SDS011;46580;52.114;11.674;2022-07-06T02:52:59;3.87;;;1.03;;
60730;SDS011;46580;52.114;11.674;2022-07-06T02:55:26;2.97;;;0.90;;
60730;SDS011;46580;52.114;11.674;2022-07-06T02:57:51;2.90;;;0.77;;
60730;SDS011;46580;52.114;11.674;2022-07-06T03:00:22;3.03;;;0.90;;
60730;SDS011;46580;52.114;11.674;2022-07-06T03:02:47;4.73;;;1.80;;
60730;SDS011;46580;52.114;11.674;2022-07-06T03:05:13;0.90;;;0.73;;
60730;SDS011;46580;52.114;11.674;2022-07-06T03:07:38;2.50;;;0.90;;
60730;SDS011;46580;52.114;11.674;2022-07-06T03:22:34;4.70;;;0.93;;
60730;SDS011;46580;52.114;11.674;2022-07-06T03:36:04;1.60;;;0.50;;
60730;SDS011;46580;52.114;11.674;2022-07-06T03:38:41;6.20;;;1.37;;
60730;SDS011;46580;52.114;11.674;2022-07-06T03:44:35;3.03;;;1.00;;
60730;SDS011;46580;52.114;11.674;2022-07-06T03:50:44;3.43;;;0.63;;
60730;SDS011;46580;52.114;11.674;2022-07-06T03:54:53;2.93;;;0.70;;
60730;SDS011;46580;52.114;11.674;2022-07-06T04:07:24;6.13;;;1.50;;
60730;SDS011;46580;52.114;11.674;2022-07-06T04:10:49;3.03;;;1.13;;
60730;SDS011;46580;52.114;11.674;2022-07-06T04:21:20;2.57;;;1.27;;
60730;SDS011;46580;52.114;11.674;2022-07-06T04:27:55;3.77;;;0.90;;
60730;SDS011;46580;52.114;11.674;2022-07-06T04:30:44;2.17;;;1.07;;
60730;SDS011;46580;52.114;11.674;2022-07-06T04:33:49;3.83;;;1.10;;
60730;SDS011;46580;52.114;11.674;2022-07-06T04:36:27;2.90;;;0.90;;
60730;SDS011;46580;52.114;11.674;2022-07-06T04:43:04;2.47;;;0.90;;
60730;SDS011;46580;52.114;11.674;2022-07-06T04:45:45;4.20;;;1.10;;
60730;SDS011;46580;52.114;11.674;2022-07-06T04:52:31;3.30;;;1.20;;
60730;SDS011;46580;52.114;11.674;2022-07-06T04:58:43;2.47;;;1.10;;
60730;SDS011;46580;52.114;11.674;2022-07-06T06:02:40;4.87;;;1.10;;
60730;SDS011;46580;52.114;11.674;2022-07-06T08:42:34;2.37;;;0.47;;
60730;SDS011;46580;52.114;11.674;2022-07-06T08:45:05;2.07;;;0.53;;
60730;SDS011;46580;52.114;11.674;2022-07-06T08:48:03;2.10;;;0.70;;
60730;SDS011;46580;52.114;11.674;2022-07-06T08:50:47;1.73;;;0.60;;
60730;SDS011;46580;52.114;11.674;2022-07-06T10:44:44;2.73;;;0.30;;
60730;SDS011;46580;52.114;11.674;2022-07-06T12:02:59;1.70;;;0.30;;
60730;SDS011;46580;52.114;11.674;2022-07-06T12:05:30;3.03;;;0.60;;
60730;SDS011;46580;52.114;11.674;2022-07-06T12:08:08;0.57;;;0.20;;
60730;SDS011;46580;52.114;11.674;2022-07-06T12:10:34;1.23;;;0.43;;
60730;SDS011;46580;52.114;11.674;2022-07-06T12:13:04;4.47;;;0.43;;
60730;SDS011;46580;52.114;11.674;2022-07-06T12:15:29;2.47;;;0.77;;
60730;SDS011;46580;52.114;11.674;2022-07-06T12:17:55;0.77;;;0.30;;
60730;SDS011;46580;52.114;11.674;2022-07-06T12:20:20;1.90;;;0.30;;
60730;SDS011;46580;52.114;11.674;2022-07-06T12:22:46;1.60;;;0.30;;
60730;SDS011;46580;52.114;11.674;2022-07-06T12:25:11;2.10;;;0.30;;
60730;SDS011;46580;52.114;11.674;2022-07-06T12:27:36;0.93;;;0.30;;
60730;SDS011;46580;52.114;11.674;2022-07-06T12:30:08;1.63;;;0.30;;
60730;SDS011;46580;52.114;11.674;2022-07-06T12:32:34;1.47;;;0.40;;
60730;SDS011;46580;52.114;11.674;2022-07-06T12:35:04;1.43;;;0.10;;
60730;SDS011;46580;52.114;11.674;2022-07-06T12:37:31;3.60;;;0.20;;
60730;SDS011;46580;52.114;11.674;2022-07-06T12:39:56;1.57;;;0.30;;
60730;SDS011;46580;52.114;11.674;2022-07-06T12:42:21;2.07;;;0.30;;
60730;SDS011;46580;52.114;11.674;2022-07-06T12:44:48;1.67;;;0.40;;
60730;SDS011;46580;52.114;11.674;2022-07-06T12:47:24;0.60;;;0.10;;
60730;SDS011;46580;52.114;11.674;2022-07-06T12:50:06;1.53;;;0.10;;
60730;SDS011;46580;52.114;11.674;2022-07-06T12:52:33;1.17;;;0.30;;
60730;SDS011;46580;52.114;11.674;2022-07-06T12:54:59;1.83;;;0.53;;
60730;SDS011;46580;52.114;11.674;2022-07-06T12:57:25;6.20;;;0.43;;
60730;SDS011;46580;52.114;11.674;2022-07-06T13:04:55;2.77;;;0.30;;
60730;SDS011;46580;52.114;11.674;2022-07-06T13:07:24;3.77;;;0.30;;
60730;SDS011;46580;52.114;11.674;2022-07-06T13:09:50;3.40;;;0.37;;
60730;SDS011;46580;52.114;11.674;2022-07-06T13:12:16;1.27;;;0.27;;
60730;SDS011;46580;52.114;11.674;2022-07-06T13:14:42;0.77;;;0.13;;
60730;SDS011;46580;52.114;11.674;2022-07-06T13:17:07;1.63;;;0.20;;
60730;SDS011;46580;52.114;11.674;2022-07-06T13:19:33;1.97;;;0.40;;
60730;SDS011;46580;52.114;11.674;2022-07-06T13:21:58;5.43;;;0.40;;
60730;SDS011;46580;52.114;11.674;2022-07-06T13:24:23;1.53;;;0.30;;
60730;SDS011;46580;52.114;11.674;2022-07-06T13:26:49;2.47;;;0.37;;
60730;SDS011;46580;52.114;11.674;2022-07-06T13:29:15;1.87;;;0.40;;
60730;SDS011;46580;52.114;11.674;2022-07-06T13:31:41;4.00;;;0.40;;
60730;SDS011;46580;52.114;11.674;2022-07-06T13:34:06;1.53;;;0.30;;
60730;SDS011;46580;52.114;11.674;2022-07-06T13:36:33;1.43;;;0.30;;
60730;SDS011;46580;52.114;11.674;2022-07-06T13:38:59;1.50;;;0.20;;
60730;SDS011;46580;52.114;11.674;2022-07-06T13:41:24;1.30;;;0.30;;
60730;SDS011;46580;52.114;11.674;2022-07-06T13:43:50;1.70;;;0.60;;
60730;SDS011;46580;52.114;11.674;2022-07-06T13:46:15;1.67;;;0.37;;
60730;SDS011;46580;52.114;11.674;2022-07-06T13:48:41;0.63;;;0.27;;
60730;SDS011;46580;52.114;11.674;2022-07-06T13:51:07;3.03;;;0.47;;
60730;SDS011;46580;52.114;11.674;2022-07-06T13:53:32;3.17;;;0.30;;
60730;SDS011;46580;52.114;11.674;2022-07-06T13:55:58;1.90;;;0.20;;
60730;SDS011;46580;52.114;11.674;2022-07-06T13:58:24;1.60;;;0.40;;
60730;SDS011;46580;52.114;11.674;2022-07-06T14:00:50;1.80;;;0.30;;
60730;SDS011;46580;52.114;11.674;2022-07-06T14:03:16;3.00;;;0.60;;
60730;SDS011;46580;52.114;11.674;2022-07-06T14:05:41;1.93;;;0.40;;
60730;SDS011;46580;52.114;11.674;2022-07-06T14:08:07;4.20;;;0.53;;
60730;SDS011;46580;52.114;11.674;2022-07-06T14:10:32;5.40;;;0.67;;
60730;SDS011;46580;52.114;11.674;2022-07-06T14:12:58;2.00;;;0.30;;
60730;SDS011;46580;52.114;11.674;2022-07-06T14:15:23;2.67;;;0.40;;
60730;SDS011;46580;52.114;11.674;2022-07-06T14:17:48;3.80;;;0.40;;
60730;SDS011;46580;52.114;11.674;2022-07-06T14:20:14;0.63;;;0.30;;
60730;SDS011;46580;52.114;11.674;2022-07-06T14:22:40;2.73;;;0.43;;
60730;SDS011;46580;52.114;11.674;2022-07-06T14:25:06;0.97;;;0.33;;
60730;SDS011;46580;52.114;11.674;2022-07-06T14:27:33;3.40;;;0.53;;
60730;SDS011;46580;52.114;11.674;2022-07-06T14:29:59;2.13;;;0.60;;
60730;SDS011;46580;52.114;11.674;2022-07-06T14:32:25;4.20;;;0.40;;
60730;SDS011;46580;52.114;11.674;2022-07-06T14:34:52;5.70;;;0.40;;
60730;SDS011;46580;52.114;11.674;2022-07-06T14:37:17;2.27;;;0.50;;
60730;SDS011;46580;52.114;11.674;2022-07-06T14:39:43;1.63;;;0.37;;
60730;SDS011;46580;52.114;11.674;2022-07-06T14:42:11;2.33;;;0.50;;
60730;SDS011;46580;52.114;11.674;2022-07-06T14:44:37;2.33;;;0.40;;
60730;SDS011;46580;52.114;11.674;2022-07-06T14:47:03;2.10;;;0.53;;
60730;SDS011;46580;52.114;11.674;2022-07-06T14:49:29;2.70;;;0.70;;
60730;SDS011;46580;52.114;11.674;2022-07-06T14:51:55;1.33;;;0.47;;
60730;SDS011;46580;52.114;11.674;2022-07-06T14:54:22;2.83;;;0.37;;
60730;SDS011;46580;52.114;11.674;2022-07-06T14:56:47;3.63;;;0.53;;
60730;SDS011;46580;52.114;11.674;2022-07-06T14:59:13;3.17;;;0.43;;
60730;SDS011;46580;52.114;11.674;2022-07-06T15:01:38;1.37;;;0.30;;
60730;SDS011;46580;52.114;11.674;2022-07-06T15:04:04;1.83;;;0.40;;
60730;SDS011;46580;52.114;11.674;2022-07-06T15:06:31;1.13;;;0.23;;
60730;SDS011;46580;52.114;11.674;2022-07-06T15:08:57;3.73;;;0.40;;
60730;SDS011;46580;52.114;11.674;2022-07-06T15:11:23;2.43;;;0.50;;
60730;SDS011;46580;52.114;11.674;2022-07-06T15:13:48;4.40;;;0.40;;
60730;SDS011;46580;52.114;11.674;2022-07-06T15:16:14;2.23;;;0.47;;
60730;SDS011;46580;52.114;11.674;2022-07-06T15:18:39;2.70;;;0.40;;
60730;SDS011;46580;52.114;11.674;2022-07-06T15:21:06;0.97;;;0.30;;
60730;SDS011;46580;52.114;11.674;2022-07-06T15:23:34;1.20;;;0.40;;
60730;SDS011;46580;52.114;11.674;2022-07-06T15:26:01;2.50;;;0.40;;
60730;SDS011;46580;52.114;11.674;2022-07-06T15:28:27;4.53;;;0.43;;
60730;SDS011;46580;52.114;11.674;2022-07-06T15:30:54;2.63;;;0.60;;
60730;SDS011;46580;52.114;11.674;2022-07-06T15:33:20;3.33;;;0.57;;
60730;SDS011;46580;52.114;11.674;2022-07-06T15:35:45;4.60;;;0.30;;
60730;SDS011;46580;52.114;11.674;2022-07-06T15:38:12;5.30;;;0.43;;
60730;SDS011;46580;52.114;11.674;2022-07-06T15:40:38;3.20;;;0.70;;
60730;SDS011;46580;52.114;11.674;2022-07-06T15:43:09;1.30;;;0.40;;
60730;SDS011;46580;52.114;11.674;2022-07-06T15:45:35;1.07;;;0.50;;
60730;SDS011;46580;52.114;11.674;2022-07-06T15:48:00;1.93;;;0.40;;
60730;SDS011;46580;52.114;11.674;2022-07-06T15:50:26;0.40;;;0.20;;
60730;SDS011;46580;52.114;11.674;2022-07-06T15:52:51;4.03;;;0.50;;
60730;SDS011;46580;52.114;11.674;2022-07-06T15:55:16;0.70;;;0.40;;
60730;SDS011;46580;52.114;11.674;2022-07-06T15:57:42;0.97;;;0.20;;
60730;SDS011;46580;52.114;11.674;2022-07-06T16:00:07;0.67;;;0.10;;
60730;SDS011;46580;52.114;11.674;2022-07-06T16:02:33;0.73;;;0.43;;
60730;SDS011;46580;52.114;11.674;2022-07-06T16:04:58;2.33;;;0.40;;
60730;SDS011;46580;52.114;11.674;2022-07-06T16:07:24;2.70;;;0.30;;
60730;SDS011;46580;52.114;11.674;2022-07-06T16:09:50;3.53;;;0.40;;
60730;SDS011;46580;52.114;11.674;2022-07-06T16:12:16;2.20;;;0.30;;
60730;SDS011;46580;52.114;11.674;2022-07-06T16:14:41;2.27;;;0.23;;
60730;SDS011;46580;52.114;11.674;2022-07-06T16:17:07;1.30;;;0.20;;
60730;SDS011;46580;52.114;11.674;2022-07-06T16:19:32;4.00;;;0.50;;
60730;SDS011;46580;52.114;11.674;2022-07-06T16:21:58;5.33;;;0.50;;
60730;SDS011;46580;52.114;11.674;2022-07-06T16:24:23;2.63;;;0.50;;
60730;SDS011;46580;52.114;11.674;2022-07-06T16:26:49;5.10;;;0.63;;
60730;SDS011;46580;52.114;11.674;2022-07-06T16:29:14;3.53;;;0.57;;
60730;SDS011;46580;52.114;11.674;2022-07-06T16:31:40;4.43;;;0.60;;
60730;SDS011;46580;52.114;11.674;2022-07-06T16:34:05;3.67;;;0.77;;
60730;SDS011;46580;52.114;11.674;2022-07-06T16:36:30;1.07;;;0.40;;
60730;SDS011;46580;52.114;11.674;2022-07-06T16:38:56;2.17;;;0.47;;
60730;SDS011;46580;52.114;11.674;2022-07-06T16:41:21;2.67;;;0.60;;
60730;SDS011;46580;52.114;11.674;2022-07-06T16:43:48;0.60;;;0.43;;
60730;SDS011;46580;52.114;11.674;2022-07-06T16:46:15;2.77;;;0.40;;
60730;SDS011;46580;52.114;11.674;2022-07-06T16:48:40;2.70;;;0.63;;
60730;SDS011;46580;52.114;11.674;2022-07-06T16:51:06;2.37;;;0.53;;
60730;SDS011;46580;52.114;11.674;2022-07-06T16:53:32;0.90;;;0.23;;
60730;SDS011;46580;52.114;11.674;2022-07-06T16:55:58;0.80;;;0.40;;
60730;SDS011;46580;52.114;11.674;2022-07-06T16:58:23;4.93;;;0.57;;
60730;SDS011;46580;52.114;11.674;2022-07-06T17:00:51;6.80;;;0.53;;
60730;SDS011;46580;52.114;11.674;2022-07-06T17:03:19;4.23;;;0.53;;
60730;SDS011;46580;52.114;11.674;2022-07-06T17:05:45;2.10;;;0.40;;
60730;SDS011;46580;52.114;11.674;2022-07-06T17:08:13;0.73;;;0.27;;
60730;SDS011;46580;52.114;11.674;2022-07-06T17:10:43;1.97;;;0.37;;
60730;SDS011;46580;52.114;11.674;2022-07-06T17:13:09;5.13;;;0.37;;
60730;SDS011;46580;52.114;11.674;2022-07-06T17:15:34;3.37;;;0.63;;
60730;SDS011;46580;52.114;11.674;2022-07-06T17:18:00;4.63;;;0.50;;
60730;SDS011;46580;52.114;11.674;2022-07-06T17:20:26;3.50;;;0.40;;
60730;SDS011;46580;52.114;11.674;2022-07-06T17:22:52;2.93;;;0.40;;
60730;SDS011;46580;52.114;11.674;2022-07-06T17:25:17;2.47;;;0.60;;
60730;SDS011;46580;52.114;11.674;2022-07-06T17:27:43;1.50;;;0.40;;
60730;SDS011;46580;52.114;11.674;2022-07-06T17:30:08;3.23;;;0.50;;
60730;SDS011;46580;52.114;11.674;2022-07-06T17:32:37;2.27;;;0.60;;
60730;SDS011;46580;52.114;11.674;2022-07-06T17:35:02;1.53;;;0.40;;
60730;SDS011;46580;52.114;11.674;2022-07-06T17:37:29;2.83;;;0.60;;
60730;SDS011;46580;52.114;11.674;2022-07-06T17:39:54;4.03;;;0.40;;
60730;SDS011;46580;52.114;11.674;2022-07-06T17:42:20;2.00;;;0.40;;
60730;SDS011;46580;52.114;11.674;2022-07-06T17:44:47;2.93;;;0.40;;
60730;SDS011;46580;52.114;11.674;2022-07-06T17:47:13;2.70;;;0.70;;
60730;SDS011;46580;52.114;11.674;2022-07-06T17:49:39;4.37;;;0.60;;
60730;SDS011;46580;52.114;11.674;2022-07-06T17:52:04;2.47;;;0.40;;
60730;SDS011;46580;52.114;11.674;2022-07-06T17:54:32;5.23;;;0.50;;
60730;SDS011;46580;52.114;11.674;2022-07-06T17:56:57;0.57;;;0.23;;
60730;SDS011;46580;52.114;11.674;2022-07-06T17:59:23;2.53;;;0.67;;
60730;SDS011;46580;52.114;11.674;2022-07-06T18:01:48;3.53;;;0.60;;
60730;SDS011;46580;52.114;11.674;2022-07-06T18:04:13;1.40;;;0.50;;
60730;SDS011;46580;52.114;11.674;2022-07-06T18:06:40;2.40;;;0.40;;
60730;SDS011;46580;52.114;11.674;2022-07-06T18:09:08;4.13;;;0.57;;
60730;SDS011;46580;52.114;11.674;2022-07-06T18:11:34;0.63;;;0.30;;
60730;SDS011;46580;52.114;11.674;2022-07-06T18:14:01;4.93;;;1.20;;
60730;SDS011;46580;52.114;11.674;2022-07-06T18:16:27;2.20;;;0.30;;
60730;SDS011;46580;52.114;11.674;2022-07-06T18:18:54;4.70;;;0.57;;
60730;SDS011;46580;52.114;11.674;2022-07-06T18:21:19;3.47;;;0.53;;
60730;SDS011;46580;52.114;11.674;2022-07-06T18:23:48;2.70;;;0.50;;
60730;SDS011;46580;52.114;11.674;2022-07-06T18:26:14;3.93;;;0.53;;
60730;SDS011;46580;52.114;11.674;2022-07-06T18:28:39;3.17;;;0.57;;
60730;SDS011;46580;52.114;11.674;2022-07-06T18:31:04;2.13;;;0.50;;
60730;SDS011;46580;52.114;11.674;2022-07-06T18:33:30;1.17;;;0.40;;
60730;SDS011;46580;52.114;11.674;2022-07-06T18:35:56;3.60;;;0.50;;
60730;SDS011;46580;52.114;11.674;2022-07-06T18:38:22;0.90;;;0.30;;
60730;SDS011;46580;52.114;11.674;2022-07-06T18:40:48;0.97;;;0.43;;
60730;SDS011;46580;52.114;11.674;2022-07-06T18:43:14;1.23;;;0.40;;
60730;SDS011;46580;52.114;11.674;2022-07-06T18:45:41;1.27;;;0.50;;
60730;SDS011;46580;52.114;11.674;2022-07-06T18:48:08;1.20;;;0.40;;
60730;SDS011;46580;52.114;11.674;2022-07-06T18:50:37;1.70;;;0.40;;
60730;SDS011;46580;52.114;11.674;2022-07-06T18:53:03;2.57;;;0.70;;
60730;SDS011;46580;52.114;11.674;2022-07-06T18:55:28;1.00;;;0.40;;
60730;SDS011;46580;52.114;11.674;2022-07-06T18:57:54;1.47;;;0.43;;
60730;SDS011;46580;52.114;11.674;2022-07-06T19:00:20;0.27;;;0.20;;
60730;SDS011;46580;52.114;11.674;2022-07-06T19:02:45;3.47;;;0.40;;
60730;SDS011;46580;52.114;11.674;2022-07-06T19:05:11;1.57;;;0.40;;
60730;SDS011;46580;52.114;11.674;2022-07-06T19:07:37;3.20;;;0.37;;
60730;SDS011;46580;52.114;11.674;2022-07-06T19:10:02;1.97;;;0.50;;
60730;SDS011;46580;52.114;11.674;2022-07-06T19:12:28;2.23;;;0.57;;
60730;SDS011;46580;52.114;11.674;2022-07-06T19:14:53;2.03;;;0.30;;
60730;SDS011;46580;52.114;11.674;2022-07-06T19:17:19;3.17;;;0.50;;
60730;SDS011;46580;52.114;11.674;2022-07-06T19:19:45;2.40;;;0.50;;
60730;SDS011;46580;52.114;11.674;2022-07-06T19:22:10;1.10;;;0.60;;
60730;SDS011;46580;52.114;11.674;2022-07-06T19:24:35;1.00;;;0.50;;
60730;SDS011;46580;52.114;11.674;2022-07-06T19:27:01;3.60;;;0.40;;
60730;SDS011;46580;52.114;11.674;2022-07-06T19:29:26;1.63;;;0.30;;
60730;SDS011;46580;52.114;11.674;2022-07-06T19:31:52;1.50;;;0.50;;
60730;SDS011;46580;52.114;11.674;2022-07-06T19:34:17;1.27;;;0.50;;
60730;SDS011;46580;52.114;11.674;2022-07-06T19:36:43;1.10;;;0.50;;
60730;SDS011;46580;52.114;11.674;2022-07-06T19:39:09;2.73;;;0.87;;
60730;SDS011;46580;52.114;11.674;2022-07-06T19:41:35;2.20;;;0.40;;
60730;SDS011;46580;52.114;11.674;2022-07-06T19:44:01;3.47;;;0.50;;
60730;SDS011;46580;52.114;11.674;2022-07-06T19:46:26;3.27;;;0.90;;
60730;SDS011;46580;52.114;11.674;2022-07-06T19:48:54;3.00;;;0.70;;
60730;SDS011;46580;52.114;11.674;2022-07-06T19:51:21;3.40;;;0.47;;
60730;SDS011;46580;52.114;11.674;2022-07-06T19:53:47;3.03;;;0.87;;
60730;SDS011;46580;52.114;11.674;2022-07-06T19:56:13;1.63;;;0.80;;
60730;SDS011;46580;52.114;11.674;2022-07-06T19:58:39;3.73;;;0.80;;
60730;SDS011;46580;52.114;11.674;2022-07-06T20:01:05;1.73;;;0.57;;
60730;SDS011;46580;52.114;11.674;2022-07-06T20:03:30;2.30;;;0.63;;
60730;SDS011;46580;52.114;11.674;2022-07-06T20:05:56;0.83;;;0.40;;
60730;SDS011;46580;52.114;11.674;2022-07-06T20:08:22;0.83;;;0.40;;
60730;SDS011;46580;52.114;11.674;2022-07-06T20:10:47;1.00;;;0.70;;
60730;SDS011;46580;52.114;11.674;2022-07-06T20:13:13;1.63;;;0.60;;
60730;SDS011;46580;52.114;11.674;2022-07-06T20:15:40;4.13;;;0.60;;
60730;SDS011;46580;52.114;11.674;2022-07-06T20:18:05;0.57;;;0.40;;
60730;SDS011;46580;52.114;11.674;2022-07-06T20:20:31;1.10;;;0.80;;
60730;SDS011;46580;52.114;11.674;2022-07-06T20:22:59;2.23;;;0.37;;
60730;SDS011;46580;52.114;11.674;2022-07-06T20:25:28;2.33;;;0.50;;
60730;SDS011;46580;52.114;11.674;2022-07-06T20:27:56;4.27;;;0.50;;
60730;SDS011;46580;52.114;11.674;2022-07-06T20:30:23;1.43;;;0.50;;
60730;SDS011;46580;52.114;11.674;2022-07-06T20:32:48;3.27;;;0.73;;
60730;SDS011;46580;52.114;11.674;2022-07-06T20:35:14;5.17;;;0.60;;
60730;SDS011;46580;52.114;11.674;2022-07-06T20:37:40;3.37;;;0.60;;
60730;SDS011;46580;52.114;11.674;2022-07-06T20:40:05;3.30;;;0.50;;
60730;SDS011;46580;52.114;11.674;2022-07-06T20:42:32;2.20;;;0.60;;
60730;SDS011;46580;52.114;11.674;2022-07-06T20:45:06;2.27;;;0.60;;
60730;SDS011;46580;52.114;11.674;2022-07-06T20:47:32;3.43;;;0.50;;
60730;SDS011;46580;52.114;11.674;2022-07-06T20:49:57;2.70;;;0.50;;
60730;SDS011;46580;52.114;11.674;2022-07-06T20:52:23;2.37;;;0.60;;
60730;SDS011;46580;52.114;11.674;2022-07-06T20:54:48;0.70;;;0.40;;
60730;SDS011;46580;52.114;11.674;2022-07-06T20:57:14;4.00;;;0.67;;
60730;SDS011;46580;52.114;11.674;2022-07-06T20:59:39;1.63;;;0.53;;
60730;SDS011;46580;52.114;11.674;2022-07-06T21:02:05;2.00;;;0.60;;
60730;SDS011;46580;52.114;11.674;2022-07-06T21:04:31;0.90;;;0.30;;
60730;SDS011;46580;52.114;11.674;2022-07-06T21:06:57;2.17;;;0.50;;
60730;SDS011;46580;52.114;11.674;2022-07-06T21:09:22;1.53;;;0.63;;
60730;SDS011;46580;52.114;11.674;2022-07-06T21:11:47;1.50;;;0.53;;
60730;SDS011;46580;52.114;11.674;2022-07-06T21:14:12;3.40;;;0.47;;
60730;SDS011;46580;52.114;11.674;2022-07-06T21:16:38;1.53;;;0.50;;
60730;SDS011;46580;52.114;11.674;2022-07-06T21:19:03;1.83;;;0.50;;
60730;SDS011;46580;52.114;11.674;2022-07-06T21:21:29;1.80;;;0.40;;
60730;SDS011;46580;52.114;11.674;2022-07-06T21:23:54;2.10;;;0.60;;
60730;SDS011;46580;52.114;11.674;2022-07-06T21:26:20;1.63;;;0.40;;
60730;SDS011;46580;52.114;11.674;2022-07-06T21:28:46;5.73;;;0.53;;
60730;SDS011;46580;52.114;11.674;2022-07-06T21:31:11;1.40;;;0.70;;
60730;SDS011;46580;52.114;11.674;2022-07-06T21:33:37;1.63;;;0.40;;
60730;SDS011;46580;52.114;11.674;2022-07-06T21:36:03;1.14;;;0.36;;
60730;SDS011;46580;52.114;11.674;2022-07-06T21:38:29;6.20;;;0.90;;
60730;SDS011;46580;52.114;11.674;2022-07-06T21:40:55;4.30;;;0.60;;
60730;SDS011;46580;52.114;11.674;2022-07-06T21:43:21;3.57;;;1.53;;
60730;SDS011;46580;52.114;11.674;2022-07-06T21:45:47;2.63;;;0.70;;
60730;SDS011;46580;52.114;11.674;2022-07-06T21:48:13;1.13;;;0.40;;
60730;SDS011;46580;52.114;11.674;2022-07-06T21:50:39;1.50;;;0.60;;
60730;SDS011;46580;52.114;11.674;2022-07-06T21:53:04;0.53;;;0.40;;
60730;SDS011;46580;52.114;11.674;2022-07-06T21:55:30;4.77;;;0.50;;
60730;SDS011;46580;52.114;11.674;2022-07-06T21:57:55;2.97;;;0.53;;
60730;SDS011;46580;52.114;11.674;2022-07-06T22:00:21;1.70;;;0.40;;
60730;SDS011;46580;52.114;11.674;2022-07-06T22:02:47;3.73;;;0.93;;
60730;SDS011;46580;52.114;11.674;2022-07-06T22:05:13;5.20;;;0.83;;
60730;SDS011;46580;52.114;11.674;2022-07-06T22:07:39;2.57;;;0.50;;
60730;SDS011;46580;52.114;11.674;2022-07-06T22:10:04;5.90;;;1.47;;
60730;SDS011;46580;52.114;11.674;2022-07-06T22:12:31;0.70;;;0.50;;
60730;SDS011;46580;52.114;11.674;2022-07-06T22:14:57;3.27;;;0.60;;
60730;SDS011;46580;52.114;11.674;2022-07-06T22:17:22;1.47;;;0.60;;
60730;SDS011;46580;52.114;11.674;2022-07-06T22:19:48;3.90;;;0.70;;
60730;SDS011;46580;52.114;11.674;2022-07-06T22:22:14;1.73;;;0.40;;
60730;SDS011;46580;52.114;11.674;2022-07-06T22:24:39;0.97;;;0.50;;
60730;SDS011;46580;52.114;11.674;2022-07-06T22:27:05;5.33;;;0.70;;
60730;SDS011;46580;52.114;11.674;2022-07-06T22:29:30;2.73;;;0.47;;